Sardinia Regina — IBMS — position and weather

sailwx.info

Track history (hours):
 
Tides and Currents Weather Stations Pressure Air Temp Water Temp Dewpoint Dewpoint Depression Visibility Wind Speed Wind Dir Waves Ship Positions

Sardinia Regina

Last reported at 2015-May-25 04:33 UTC. Time now 2015-May-25 05:27 UTC.
Position N 43°29' E 010°14'.

Length 146 m; draft 5 m.

Type: Passenger vessel. MMSI: 247079000.

Date/timePositionNaut miles runAvg speedWind from/ knotsBaromVisibWave heightAir tempDewpointWater temp
2015-May-25 04:33N 43°29' E 010°14'1515.2
2015-May-25 03:33N 43°15' E 010°08'1515.5
2015-May-25 02:33N 42°60' E 010°03'3 0.1
2015-May-23 21:15N 43°03' E 010°04'1216.8
2015-May-23 20:33N 43°14' E 010°07'1716.6
2015-May-23 19:34N 43°31' E 010°13'5 4.4
2015-May-23 18:32N 43°33' E 010°18'0 0.0
2015-May-23 17:32N 43°33' E 010°18'0 0.0
2015-May-23 16:32N 43°33' E 010°18'7 7.5
2015-May-23 15:33N 43°27' E 010°12'1917.2
2015-May-23 14:26N 43°09' E 010°02'1717.3
2015-May-23 13:28N 42°55' E 009°50'8 1.9
2015-May-23 09:09N 43°01' E 009°58'1117.8
2015-May-23 08:33N 43°11' E 010°03'1716.8
2015-May-23 07:33N 43°27' E 010°11'8 7.8
2015-May-23 06:31N 43°33' E 010°18'0 0.0
2015-May-23 05:31N 43°33' E 010°18'2 2.0
2015-May-23 04:33N 43°32' E 010°16'1413.7
2015-May-23 03:33N 43°19' E 010°10'20 1.1
2015-May-22 09:19N 42°59' E 010°02'1418.1
2015-May-22 08:33N 43°13' E 010°06'1817.7
2015-May-22 07:33N 43°30' E 010°12'5 5.2
2015-May-22 06:33N 43°33' E 010°18'0 0.0
2015-May-22 05:33N 43°33' E 010°18'3 2.5
2015-May-22 04:33N 43°31' E 010°16'1514.6
2015-May-22 03:33N 43°17' E 010°09'26 1.5
2015-May-21 09:31N 42°55' E 009°50'1616.6
2015-May-21 08:33N 43°09' E 010°02'1616.0
2015-May-21 07:33N 43°23' E 010°10'1111.1
2015-May-21 06:32N 43°33' E 010°18'0 0.0
2015-May-21 05:32N 43°33' E 010°18'3 2.8
2015-May-21 04:33N 43°31' E 010°15'1313.4
2015-May-21 03:33N 43°18' E 010°10'30 1.0
2015-May-19 22:12N 42°49' E 009°60'1116.5
2015-May-19 21:33N 42°60' E 010°03'1716.8
2015-May-19 20:33N 43°16' E 010°08'1616.3
2015-May-19 19:34N 43°31' E 010°15'3 3.0
2015-May-19 18:33N 43°33' E 010°18'0 0.0
2015-May-19 17:33N 43°33' E 010°18'0 0.0
2015-May-19 16:34N 43°33' E 010°18'1111.5
2015-May-19 15:34N 43°23' E 010°10'1817.6
2015-May-19 14:33N 43°07' E 010°01'14 2.8
2015-May-19 09:32N 42°55' E 009°50'1717.3
2015-May-19 08:33N 43°10' E 010°02'1817.7
2015-May-19 07:34N 43°26' E 010°11'9 8.6
2015-May-19 06:33N 43°33' E 010°18'0 0.0
2015-May-19 05:33N 43°33' E 010°18'2 2.5
2015-May-19 04:33N 43°31' E 010°16'1413.9
2015-May-19 03:33N 43°18' E 010°10'1615.5
2015-May-19 02:33N 43°03' E 010°05'1616.0
2015-May-19 01:33N 42°48' E 009°59'1615.9
2015-May-19 00:33N 42°32' E 009°56'3616.3
2015-May-18 22:19N 41°56' E 009°50'51 2.1
2015-May-17 22:05N 42°46' E 009°59'916.5
2015-May-17 21:32N 42°55' E 010°01'1616.7
2015-May-17 20:33N 43°11' E 010°06'1717.2
2015-May-17 19:33N 43°27' E 010°11'8 7.4
2015-May-17 18:32N 43°33' E 010°18'0 0.0
2015-May-17 17:33N 43°33' E 010°18'0 0.0
2015-May-17 16:33N 43°33' E 010°18'8 8.3
2015-May-17 15:33N 43°26' E 010°12'1616.3
2015-May-17 14:33N 43°11' E 010°04'1816.4
2015-May-17 13:26N 42°55' E 009°50'4 1.0
2015-May-17 09:30N 42°53' E 009°46'1617.3
2015-May-17 08:33N 43°06' E 009°60'1818.0
2015-May-17 07:33N 43°23' E 010°09'1212.3
2015-May-17 06:33N 43°33' E 010°18'0 0.0
2015-May-17 05:33N 43°33' E 010°18'3 3.2
2015-May-17 04:33N 43°31' E 010°15'1514.8
2015-May-17 03:33N 43°17' E 010°09'1515.1
2015-May-17 02:34N 43°02' E 010°05'1515.3
2015-May-17 01:33N 42°47' E 009°60'20 0.7
2015-May-15 22:33N 43°06' E 010°05'1616.2
2015-May-15 21:33N 43°22' E 010°10'1212.1
2015-May-15 20:33N 43°33' E 010°18'0 0.3
2015-May-15 19:33N 43°33' E 010°18'0 0.0
2015-May-15 18:34N 43°33' E 010°18'7 6.8
2015-May-15 17:33N 43°28' E 010°12'1716.7
2015-May-15 16:33N 43°17' E 009°55'2316.8
2015-May-15 15:10N 43°02' E 009°30'1616.7
2015-May-15 14:14N 42°46' E 009°32'  
Track history (hours):
 
Tides and Currents Weather Stations Pressure Air Temp Water Temp Dewpoint Dewpoint Depression Visibility Wind Speed Wind Dir Waves Ship Positions

Sardinia Regina

Last reported at 2015-May-25 04:33 UTC. Time now 2015-May-25 05:27 UTC.
Position N 43°29' E 010°14'.

Length 146 m; draft 5 m.

Type: Passenger vessel. MMSI: 247079000.

Date/timePositionNaut miles runAvg speedWind from/ knotsBaromVisibWave heightAir tempDewpointWater temp
2015-May-25 04:33N 43°29' E 010°14'1515.2
2015-May-25 03:33N 43°15' E 010°08'1515.5
2015-May-25 02:33N 42°60' E 010°03'3 0.1
2015-May-23 21:15N 43°03' E 010°04'1216.8
2015-May-23 20:33N 43°14' E 010°07'1716.6
2015-May-23 19:34N 43°31' E 010°13'5 4.4
2015-May-23 18:32N 43°33' E 010°18'0 0.0
2015-May-23 17:32N 43°33' E 010°18'0 0.0
2015-May-23 16:32N 43°33' E 010°18'7 7.5
2015-May-23 15:33N 43°27' E 010°12'1917.2
2015-May-23 14:26N 43°09' E 010°02'1717.3
2015-May-23 13:28N 42°55' E 009°50'8 1.9
2015-May-23 09:09N 43°01' E 009°58'1117.8
2015-May-23 08:33N 43°11' E 010°03'1716.8
2015-May-23 07:33N 43°27' E 010°11'8 7.8
2015-May-23 06:31N 43°33' E 010°18'0 0.0
2015-May-23 05:31N 43°33' E 010°18'2 2.0
2015-May-23 04:33N 43°32' E 010°16'1413.7
2015-May-23 03:33N 43°19' E 010°10'20 1.1
2015-May-22 09:19N 42°59' E 010°02'1418.1
2015-May-22 08:33N 43°13' E 010°06'1817.7
2015-May-22 07:33N 43°30' E 010°12'5 5.2
2015-May-22 06:33N 43°33' E 010°18'0 0.0
2015-May-22 05:33N 43°33' E 010°18'3 2.5
2015-May-22 04:33N 43°31' E 010°16'1514.6
2015-May-22 03:33N 43°17' E 010°09'26 1.5
2015-May-21 09:31N 42°55' E 009°50'1616.6
2015-May-21 08:33N 43°09' E 010°02'1616.0
2015-May-21 07:33N 43°23' E 010°10'1111.1
2015-May-21 06:32N 43°33' E 010°18'0 0.0
2015-May-21 05:32N 43°33' E 010°18'3 2.8
2015-May-21 04:33N 43°31' E 010°15'1313.4
2015-May-21 03:33N 43°18' E 010°10'30 1.0
2015-May-19 22:12N 42°49' E 009°60'1116.5
2015-May-19 21:33N 42°60' E 010°03'1716.8
2015-May-19 20:33N 43°16' E 010°08'1616.3
2015-May-19 19:34N 43°31' E 010°15'3 3.0
2015-May-19 18:33N 43°33' E 010°18'0 0.0
2015-May-19 17:33N 43°33' E 010°18'0 0.0
2015-May-19 16:34N 43°33' E 010°18'1111.5
2015-May-19 15:34N 43°23' E 010°10'1817.6
2015-May-19 14:33N 43°07' E 010°01'14 2.8
2015-May-19 09:32N 42°55' E 009°50'1717.3
2015-May-19 08:33N 43°10' E 010°02'1817.7
2015-May-19 07:34N 43°26' E 010°11'9 8.6
2015-May-19 06:33N 43°33' E 010°18'0 0.0
2015-May-19 05:33N 43°33' E 010°18'2 2.5
2015-May-19 04:33N 43°31' E 010°16'1413.9
2015-May-19 03:33N 43°18' E 010°10'1615.5
2015-May-19 02:33N 43°03' E 010°05'1616.0
2015-May-19 01:33N 42°48' E 009°59'1615.9
2015-May-19 00:33N 42°32' E 009°56'3616.3
2015-May-18 22:19N 41°56' E 009°50'51 2.1
2015-May-17 22:05N 42°46' E 009°59'916.5
2015-May-17 21:32N 42°55' E 010°01'1616.7
2015-May-17 20:33N 43°11' E 010°06'1717.2
2015-May-17 19:33N 43°27' E 010°11'8 7.4
2015-May-17 18:32N 43°33' E 010°18'0 0.0
2015-May-17 17:33N 43°33' E 010°18'0 0.0
2015-May-17 16:33N 43°33' E 010°18'8 8.3
2015-May-17 15:33N 43°26' E 010°12'1616.3
2015-May-17 14:33N 43°11' E 010°04'1816.4
2015-May-17 13:26N 42°55' E 009°50'4 1.0
2015-May-17 09:30N 42°53' E 009°46'1617.3
2015-May-17 08:33N 43°06' E 009°60'1818.0
2015-May-17 07:33N 43°23' E 010°09'1212.3
2015-May-17 06:33N 43°33' E 010°18'0 0.0
2015-May-17 05:33N 43°33' E 010°18'3 3.2
2015-May-17 04:33N 43°31' E 010°15'1514.8
2015-May-17 03:33N 43°17' E 010°09'1515.1
2015-May-17 02:34N 43°02' E 010°05'1515.3
2015-May-17 01:33N 42°47' E 009°60'20 0.7
2015-May-15 22:33N 43°06' E 010°05'1616.2
2015-May-15 21:33N 43°22' E 010°10'1212.1
2015-May-15 20:33N 43°33' E 010°18'0 0.3
2015-May-15 19:33N 43°33' E 010°18'0 0.0
2015-May-15 18:34N 43°33' E 010°18'7 6.8
2015-May-15 17:33N 43°28' E 010°12'1716.7
2015-May-15 16:33N 43°17' E 009°55'2316.8
2015-May-15 15:10N 43°02' E 009°30'1616.7
2015-May-15 14:14N 42°46' E 009°32'  

Dump ship's entire track history